createdAt,value
2023-05-08T00:02:10.188Z,56.92
2023-05-08T00:04:36.804Z,56.55
2023-05-08T00:07:03.314Z,56.50
2023-05-08T00:09:29.814Z,56.76
2023-05-08T00:11:56.317Z,56.37
2023-05-08T00:14:22.812Z,56.24
2023-05-08T00:16:49.335Z,56.22
2023-05-08T00:19:15.829Z,56.35
2023-05-08T00:21:42.298Z,56.26
2023-05-08T00:24:08.834Z,56.24
2023-05-08T00:26:35.372Z,56.21
2023-05-08T00:29:01.855Z,56.05
2023-05-08T00:31:28.362Z,56.00
2023-05-08T00:33:54.894Z,55.84
2023-05-08T00:36:21.729Z,55.79
2023-05-08T00:38:48.304Z,55.78
2023-05-08T00:41:14.849Z,55.68
2023-05-08T00:43:41.387Z,55.84
2023-05-08T00:46:09.946Z,55.88
2023-05-08T00:48:36.686Z,55.77
2023-05-08T00:51:06.387Z,55.77
2023-05-08T00:53:37.111Z,55.96
2023-05-08T00:56:04.974Z,55.77
2023-05-08T00:58:32.683Z,55.99
2023-05-08T01:01:00.801Z,56.01
2023-05-08T01:03:28.673Z,55.98
2023-05-08T01:05:55.250Z,56.03
2023-05-08T01:08:21.805Z,55.95
2023-05-08T01:10:54.258Z,56.20
2023-05-08T01:13:47.159Z,56.25
2023-05-08T01:16:35.971Z,56.20
2023-05-08T01:19:24.204Z,56.25
2023-05-08T01:22:14.547Z,56.25
2023-05-08T01:25:11.407Z,56.04
2023-05-08T01:28:01.959Z,56.17
2023-05-08T01:30:46.660Z,56.26
2023-05-08T01:33:32.082Z,56.20
2023-05-08T01:36:17.351Z,56.36
2023-05-08T01:39:02.202Z,56.11
2023-05-08T01:41:31.652Z,56.31
2023-05-08T01:44:00.873Z,56.50
2023-05-08T01:46:30.880Z,56.56
2023-05-08T01:49:13.002Z,56.40
2023-05-08T01:51:43.904Z,56.35
2023-05-08T01:54:14.673Z,56.54
2023-05-08T01:56:44.159Z,56.41
2023-05-08T01:59:14.726Z,56.35
2023-05-08T02:01:42.267Z,56.68
2023-05-08T02:04:11.271Z,56.72
2023-05-08T02:06:38.882Z,56.51
2023-05-08T02:09:08.807Z,56.81
2023-05-08T02:11:38.139Z,56.62
2023-05-08T02:14:07.081Z,56.76
2023-05-08T02:16:35.948Z,56.96
2023-05-08T02:19:04.455Z,56.91
2023-05-08T02:21:31.967Z,56.74
2023-05-08T02:24:00.325Z,56.82
2023-05-08T02:26:28.604Z,56.84
2023-05-08T02:28:56.169Z,56.71
2023-05-08T02:31:24.507Z,56.82
2023-05-08T02:33:52.761Z,56.89
2023-05-08T02:36:20.755Z,56.78
2023-05-08T02:38:52.766Z,56.87
2023-05-08T02:41:22.355Z,57.09
2023-05-08T02:43:50.110Z,56.88
2023-05-08T02:46:24.353Z,57.10
2023-05-08T02:49:33.624Z,57.00
2023-05-08T02:52:08.751Z,56.86
2023-05-08T02:54:46.307Z,56.77
2023-05-08T02:57:37.679Z,56.87
2023-05-08T03:00:13.707Z,57.08
2023-05-08T03:02:43.868Z,57.09
2023-05-08T03:05:17.643Z,56.91
2023-05-08T03:07:45.297Z,56.84
2023-05-08T03:10:13.836Z,56.92
2023-05-08T03:12:45.777Z,56.96
2023-05-08T03:15:20.701Z,57.58
2023-05-08T03:17:50.886Z,57.04
2023-05-08T03:20:19.719Z,56.95
2023-05-08T03:22:48.323Z,57.19
2023-05-08T03:25:18.028Z,57.05
2023-05-08T03:27:45.700Z,57.05
2023-05-08T03:30:13.427Z,57.17
2023-05-08T03:32:41.411Z,57.23
2023-05-08T03:35:09.733Z,57.31
2023-05-08T03:37:36.654Z,57.14
2023-05-08T03:40:03.832Z,57.08
2023-05-08T03:42:31.338Z,57.20
2023-05-08T03:44:57.896Z,57.31
2023-05-08T03:47:28.292Z,57.42
2023-05-08T03:49:55.337Z,57.08
2023-05-08T03:52:21.868Z,57.29
2023-05-08T03:54:48.367Z,57.09
2023-05-08T03:57:14.929Z,57.09
2023-05-08T04:00:02.447Z,56.99
2023-05-08T04:02:33.697Z,57.14
2023-05-08T04:05:20.926Z,57.19
2023-05-08T04:07:53.833Z,57.15
2023-05-08T04:10:27.309Z,57.18
2023-05-08T04:13:13.341Z,57.03
2023-05-08T04:16:00.952Z,56.94
2023-05-08T04:18:30.183Z,56.99
2023-05-08T04:20:58.049Z,56.96
2023-05-08T04:23:25.243Z,56.72
2023-05-08T04:25:53.055Z,57.23
2023-05-08T04:28:21.634Z,57.10
2023-05-08T04:30:49.541Z,57.07
2023-05-08T04:33:18.230Z,56.93
2023-05-08T04:35:46.296Z,57.17
2023-05-08T04:38:12.871Z,57.11
2023-05-08T04:40:39.481Z,57.00
2023-05-08T04:43:06.188Z,56.77
2023-05-08T04:45:32.749Z,56.78
2023-05-08T04:47:59.283Z,56.46
2023-05-08T04:50:25.987Z,56.73
2023-05-08T04:52:52.506Z,56.58
2023-05-08T04:55:19.051Z,56.65
2023-05-08T04:57:45.881Z,56.83
2023-05-08T05:00:13.020Z,56.47
2023-05-08T05:02:39.565Z,56.86
2023-05-08T05:05:06.559Z,57.00
2023-05-08T05:07:33.034Z,57.06
2023-05-08T05:10:00.620Z,57.31
2023-05-08T05:12:27.120Z,57.31
2023-05-08T05:14:53.604Z,57.51
2023-05-08T05:17:20.108Z,57.33
2023-05-08T05:19:47.164Z,57.52
2023-05-08T05:22:13.654Z,57.69
2023-05-08T05:24:40.938Z,57.69
2023-05-08T05:27:07.485Z,57.66
2023-05-08T05:29:33.995Z,57.57
2023-05-08T05:32:01.503Z,57.60
2023-05-08T05:34:28.094Z,57.91
2023-05-08T05:36:54.576Z,57.93
2023-05-08T05:39:21.056Z,58.04
2023-05-08T05:41:47.559Z,57.94
2023-05-08T05:44:14.096Z,58.31
2023-05-08T05:46:43.540Z,58.11
2023-05-08T05:49:11.850Z,58.21
2023-05-08T05:51:38.338Z,58.16
2023-05-08T05:54:04.903Z,58.04
2023-05-08T05:56:31.397Z,58.10
2023-05-08T05:58:57.862Z,58.07
2023-05-08T06:01:29.057Z,58.02
2023-05-08T06:03:55.909Z,58.08
2023-05-08T06:06:22.720Z,57.97
2023-05-08T06:08:49.178Z,58.09
2023-05-08T06:11:15.673Z,58.15
2023-05-08T06:13:43.821Z,58.06
2023-05-08T06:16:10.322Z,58.18
2023-05-08T06:18:36.810Z,58.15
2023-05-08T06:21:03.507Z,58.18
2023-05-08T06:23:30.109Z,58.19
2023-05-08T06:25:56.675Z,58.39
2023-05-08T06:28:25.956Z,58.45
2023-05-08T06:30:52.816Z,58.44
2023-05-08T06:33:19.566Z,58.26
2023-05-08T06:35:47.720Z,58.59
2023-05-08T06:38:14.906Z,58.41
2023-05-08T06:40:43.719Z,58.61
2023-05-08T06:43:10.898Z,58.66
2023-05-08T06:45:37.403Z,58.59
2023-05-08T06:48:04.159Z,58.98
2023-05-08T06:50:31.252Z,58.70
2023-05-08T06:52:57.856Z,58.88
2023-05-08T06:55:24.391Z,58.80
2023-05-08T06:57:50.973Z,58.89
2023-05-08T07:00:17.641Z,58.79
2023-05-08T07:02:44.223Z,58.93
2023-05-08T07:05:11.197Z,58.80
2023-05-08T07:07:37.952Z,58.79
2023-05-08T07:10:05.924Z,58.96
2023-05-08T07:12:33.747Z,58.87
2023-05-08T07:15:02.002Z,58.83
2023-05-08T07:17:36.986Z,58.82
2023-05-08T07:20:04.378Z,58.68
2023-05-08T07:22:30.926Z,58.66
2023-05-08T07:24:57.871Z,58.93
2023-05-08T07:27:24.353Z,58.93
2023-05-08T07:29:50.958Z,58.83
2023-05-08T07:32:17.694Z,58.82
2023-05-08T07:34:44.366Z,58.70
2023-05-08T07:37:11.925Z,58.80
2023-05-08T07:39:38.439Z,58.98
2023-05-08T07:42:04.986Z,58.92
2023-05-08T07:44:43.496Z,59.17
2023-05-08T07:47:13.722Z,58.93
2023-05-08T07:49:40.408Z,58.84
2023-05-08T07:52:06.887Z,59.05
2023-05-08T07:54:33.420Z,58.93
2023-05-08T07:56:59.887Z,59.52
2023-05-08T07:59:26.402Z,59.09
2023-05-08T08:01:53.331Z,59.09
2023-05-08T08:04:19.928Z,59.20
2023-05-08T08:06:46.480Z,59.17
2023-05-08T08:09:13.026Z,59.25
2023-05-08T08:11:39.563Z,58.89
2023-05-08T08:14:06.129Z,58.97
2023-05-08T08:16:32.717Z,58.96
2023-05-08T08:18:59.627Z,59.06
2023-05-08T08:21:26.099Z,58.90
2023-05-08T08:23:52.654Z,58.93
2023-05-08T08:26:19.127Z,58.56
2023-05-08T08:28:45.619Z,58.81
2023-05-08T08:31:12.167Z,58.77
2023-05-08T08:33:39.108Z,58.62
2023-05-08T08:36:06.265Z,58.59
2023-05-08T08:38:32.729Z,58.56
2023-05-08T08:40:59.356Z,58.54
2023-05-08T08:43:26.666Z,58.51
2023-05-08T08:45:53.395Z,58.74
2023-05-08T08:48:21.800Z,58.65
2023-05-08T08:50:53.335Z,58.55
2023-05-08T08:53:30.883Z,58.64
2023-05-08T08:56:00.774Z,58.41
2023-05-08T08:58:32.027Z,58.51
2023-05-08T09:01:00.649Z,58.46
2023-05-08T09:03:27.755Z,58.44
2023-05-08T09:05:55.288Z,58.43
2023-05-08T09:08:21.785Z,58.34
2023-05-08T09:10:48.921Z,58.37
2023-05-08T09:13:16.705Z,58.30
2023-05-08T09:15:44.689Z,58.28
2023-05-08T09:18:11.215Z,58.41
2023-05-08T09:20:40.799Z,58.50
2023-05-08T09:23:08.379Z,58.36
2023-05-08T09:25:41.600Z,58.58
2023-05-08T09:28:19.111Z,58.61
2023-05-08T09:30:53.131Z,58.65
2023-05-08T09:33:21.603Z,58.55
2023-05-08T09:35:51.347Z,58.54
2023-05-08T09:38:30.012Z,58.50
2023-05-08T09:41:26.726Z,58.47
2023-05-08T09:44:07.396Z,58.59
2023-05-08T09:46:34.708Z,58.41
2023-05-08T09:49:03.429Z,58.59
2023-05-08T09:51:31.986Z,58.63
2023-05-08T09:54:00.078Z,58.60
2023-05-08T09:56:40.080Z,58.59
2023-05-08T09:59:23.744Z,58.39
2023-05-08T10:01:50.983Z,58.27
2023-05-08T10:04:17.661Z,58.22
2023-05-08T10:06:44.198Z,58.17
2023-05-08T10:09:14.719Z,58.31
2023-05-08T10:11:51.913Z,58.09
2023-05-08T10:14:19.543Z,58.01
2023-05-08T10:16:46.894Z,58.26
2023-05-08T10:19:16.158Z,58.04
2023-05-08T10:21:46.988Z,58.07
2023-05-08T10:24:21.793Z,57.78
2023-05-08T10:27:17.690Z,57.76
2023-05-08T10:30:06.810Z,57.93
2023-05-08T10:32:42.357Z,57.70
2023-05-08T10:35:11.015Z,57.75
2023-05-08T10:37:39.312Z,57.91
2023-05-08T10:40:06.659Z,57.61
2023-05-08T10:42:35.397Z,57.65
2023-05-08T10:45:04.806Z,57.81
2023-05-08T10:47:53.000Z,57.64
2023-05-08T10:50:46.714Z,57.48
2023-05-08T10:53:22.516Z,57.39
2023-05-08T10:55:51.765Z,57.49
2023-05-08T10:58:24.252Z,57.28
2023-05-08T11:00:53.370Z,57.35
2023-05-08T11:03:31.475Z,57.14
2023-05-08T11:06:01.705Z,57.30
2023-05-08T11:08:29.680Z,57.42
2023-05-08T11:11:02.108Z,57.25
2023-05-08T11:13:41.308Z,57.22
2023-05-08T11:16:08.484Z,57.41
2023-05-08T11:18:48.614Z,57.42
2023-05-08T11:21:21.794Z,57.58
2023-05-08T11:23:57.524Z,57.66
2023-05-08T11:26:39.949Z,57.65
2023-05-08T11:29:16.781Z,57.48
2023-05-08T11:31:50.546Z,57.47
2023-05-08T11:34:42.155Z,57.51
2023-05-08T11:37:16.706Z,57.33
2023-05-08T11:39:43.303Z,57.17
2023-05-08T11:42:24.872Z,57.24
2023-05-08T11:45:10.220Z,57.13
2023-05-08T11:47:41.904Z,57.32
2023-05-08T11:50:10.201Z,57.05
2023-05-08T11:52:37.941Z,57.04
2023-05-08T11:55:09.611Z,56.95
2023-05-08T11:57:36.371Z,56.91
2023-05-08T12:00:09.684Z,56.76
2023-05-08T12:02:40.618Z,56.77
2023-05-08T12:05:08.562Z,56.73
2023-05-08T12:07:46.442Z,56.44
2023-05-08T12:10:15.079Z,56.50
2023-05-08T12:12:43.432Z,56.36
2023-05-08T12:15:14.616Z,56.60
2023-05-08T12:17:42.547Z,56.26
2023-05-08T12:20:18.654Z,56.56
2023-05-08T12:22:52.838Z,56.42
2023-05-08T12:25:20.295Z,56.21
2023-05-08T12:27:49.855Z,56.36
2023-05-08T12:30:17.320Z,56.48
2023-05-08T12:32:44.644Z,56.24
2023-05-08T12:35:12.986Z,56.17
2023-05-08T12:37:39.902Z,56.34
2023-05-08T12:40:07.310Z,56.20
2023-05-08T12:42:48.811Z,55.96
2023-05-08T12:45:28.037Z,56.06
2023-05-08T12:47:59.469Z,55.98
2023-05-08T12:50:26.075Z,55.97
2023-05-08T12:52:52.678Z,55.94
2023-05-08T12:55:29.232Z,55.80
2023-05-08T12:57:59.738Z,55.66
2023-05-08T13:00:26.391Z,55.60
2023-05-08T13:02:56.629Z,55.80
2023-05-08T13:05:23.899Z,55.34
2023-05-08T13:07:51.483Z,55.58
2023-05-08T13:10:23.884Z,55.52
2023-05-08T13:12:52.242Z,55.18
2023-05-08T13:15:18.825Z,55.17
2023-05-08T13:17:45.395Z,55.20
2023-05-08T13:20:12.199Z,55.11
2023-05-08T13:22:38.800Z,55.26
2023-05-08T13:25:05.916Z,55.19
2023-05-08T13:27:32.421Z,55.29
2023-05-08T13:29:58.963Z,55.26
2023-05-08T13:32:25.548Z,55.25
2023-05-08T13:34:54.158Z,55.24
2023-05-08T13:37:24.174Z,55.14
2023-05-08T13:39:50.679Z,55.00
2023-05-08T13:42:17.195Z,55.00
2023-05-08T13:44:43.756Z,54.84
2023-05-08T13:47:10.372Z,54.80
2023-05-08T13:49:36.878Z,54.91
2023-05-08T13:52:03.634Z,54.69
2023-05-08T13:54:30.119Z,54.77
2023-05-08T13:56:56.669Z,54.64
2023-05-08T13:59:23.214Z,54.54
2023-05-08T14:01:49.742Z,54.48
2023-05-08T14:04:16.272Z,54.51
2023-05-08T14:06:42.776Z,54.73
2023-05-08T14:09:09.300Z,54.40
2023-05-08T14:11:35.816Z,54.61
2023-05-08T14:14:02.376Z,54.59
2023-05-08T14:16:28.959Z,54.68
2023-05-08T14:18:55.928Z,54.46
2023-05-08T14:21:22.445Z,54.28
2023-05-08T14:23:49.002Z,54.42
2023-05-08T14:26:15.949Z,54.44
2023-05-08T14:28:42.433Z,54.45
2023-05-08T14:31:09.048Z,54.33
2023-05-08T14:33:35.541Z,54.32
2023-05-08T14:36:02.031Z,54.44
2023-05-08T14:38:28.515Z,54.48
2023-05-08T14:40:55.010Z,54.45
2023-05-08T14:43:21.940Z,54.50
2023-05-08T14:45:48.992Z,54.56
2023-05-08T14:48:15.701Z,54.59
2023-05-08T14:50:42.579Z,54.58
2023-05-08T14:53:09.320Z,54.70
2023-05-08T14:55:36.226Z,54.68
2023-05-08T14:58:03.055Z,54.55
2023-05-08T15:00:29.548Z,54.52
2023-05-08T15:02:56.210Z,54.68
2023-05-08T15:05:22.963Z,54.69
2023-05-08T15:07:50.230Z,54.50
2023-05-08T15:10:16.806Z,54.65
2023-05-08T15:12:43.376Z,54.40
2023-05-08T15:15:10.402Z,54.62
2023-05-08T15:17:37.027Z,54.46
2023-05-08T15:20:04.493Z,54.49
2023-05-08T15:22:31.006Z,54.62
2023-05-08T15:25:02.350Z,54.62
2023-05-08T15:27:29.929Z,54.72
2023-05-08T15:29:56.860Z,54.63
2023-05-08T15:32:23.902Z,54.77
2023-05-08T15:34:50.519Z,54.79
2023-05-08T15:37:17.162Z,56.27
2023-05-08T15:39:43.629Z,56.44
2023-05-08T15:42:10.140Z,56.31
2023-05-08T15:47:06.002Z,56.13
2023-05-08T15:49:32.478Z,56.27
2023-05-08T15:51:58.976Z,56.08
2023-05-08T15:54:25.476Z,56.11
2023-05-08T15:56:52.000Z,56.10
2023-05-08T15:59:18.516Z,56.27
2023-05-08T16:01:46.905Z,56.07
2023-05-08T16:04:13.712Z,56.18
2023-05-08T16:06:40.214Z,56.16
2023-05-08T16:09:06.729Z,56.07
2023-05-08T16:11:33.394Z,56.12
2023-05-08T16:14:00.030Z,56.18
2023-05-08T16:16:26.655Z,56.03
2023-05-08T16:18:53.347Z,56.13
2023-05-08T16:21:19.968Z,56.20
2023-05-08T16:23:46.497Z,56.11
2023-05-08T16:26:14.072Z,56.11
2023-05-08T16:28:40.534Z,56.57
2023-05-08T16:31:07.713Z,56.80
2023-05-08T16:33:34.347Z,56.82
2023-05-08T16:36:00.919Z,56.72
2023-05-08T16:38:27.415Z,56.80
2023-05-08T16:40:53.902Z,56.74
2023-05-08T16:43:20.452Z,56.68
2023-05-08T16:45:51.212Z,57.19
2023-05-08T16:48:17.767Z,57.12
2023-05-08T16:50:44.252Z,57.29
2023-05-08T16:53:10.803Z,57.10
2023-05-08T16:55:37.293Z,57.06
2023-05-08T16:58:04.697Z,57.18
2023-05-08T17:00:31.283Z,57.17
2023-05-08T17:02:57.939Z,57.03
2023-05-08T17:05:24.542Z,57.03
2023-05-08T17:07:51.384Z,57.22
2023-05-08T17:10:17.972Z,57.35
2023-05-08T17:12:44.511Z,57.35
2023-05-08T17:15:11.578Z,58.12
2023-05-08T17:17:38.335Z,58.22
2023-05-08T17:20:05.612Z,58.43
2023-05-08T17:22:32.105Z,58.55
2023-05-08T17:24:58.608Z,58.50
2023-05-08T17:27:25.135Z,58.61
2023-05-08T17:29:51.630Z,58.11
2023-05-08T17:32:18.112Z,58.28
2023-05-08T17:34:44.695Z,58.14
2023-05-08T17:37:11.851Z,58.00
2023-05-08T17:39:38.364Z,57.75
2023-05-08T17:42:04.963Z,57.95
2023-05-08T17:44:31.520Z,57.99
2023-05-08T17:46:58.018Z,58.63
2023-05-08T17:49:24.492Z,59.32
2023-05-08T17:51:50.965Z,58.99
2023-05-08T17:54:17.482Z,59.01
2023-05-08T17:56:44.820Z,59.40
2023-05-08T17:59:11.372Z,59.28
2023-05-08T18:01:37.899Z,59.66
2023-05-08T18:04:04.762Z,59.88
2023-05-08T18:06:31.484Z,59.93
2023-05-08T18:08:58.024Z,60.22
2023-05-08T18:11:26.058Z,60.35
2023-05-08T18:13:53.838Z,60.96
2023-05-08T18:16:21.713Z,60.78
2023-05-08T18:18:49.608Z,60.62
2023-05-08T18:21:16.139Z,61.02
2023-05-08T18:23:42.665Z,61.01
2023-05-08T18:26:13.387Z,61.05
2023-05-08T18:28:39.897Z,60.98
2023-05-08T18:31:06.449Z,60.98
2023-05-08T18:33:33.020Z,61.25
2023-05-08T18:35:59.564Z,61.26
2023-05-08T18:38:26.090Z,61.32
2023-05-08T18:40:52.585Z,61.32
2023-05-08T18:43:19.121Z,61.60
2023-05-08T18:45:45.758Z,61.42
2023-05-08T18:48:12.311Z,61.72
2023-05-08T18:50:38.842Z,62.10
2023-05-08T18:53:06.367Z,61.96
2023-05-08T18:55:32.880Z,62.14
2023-05-08T18:57:59.388Z,62.33
2023-05-08T19:00:26.157Z,62.27
2023-05-08T19:02:52.719Z,62.17
2023-05-08T19:05:19.374Z,62.08
2023-05-08T19:07:46.079Z,62.35
2023-05-08T19:10:12.953Z,62.19
2023-05-08T19:12:40.024Z,62.45
2023-05-08T19:15:08.915Z,62.64
2023-05-08T19:17:36.896Z,62.59
2023-05-08T19:20:04.074Z,62.65
2023-05-08T19:22:32.455Z,62.54
2023-05-08T19:25:00.492Z,62.63
2023-05-08T19:27:29.007Z,62.72
2023-05-08T19:29:55.894Z,62.65
2023-05-08T19:32:22.421Z,62.67
2023-05-08T19:34:48.931Z,62.53
2023-05-08T19:37:15.475Z,62.50
2023-05-08T19:39:41.974Z,62.29
2023-05-08T19:42:10.279Z,62.49
2023-05-08T19:44:36.768Z,62.40
2023-05-08T19:47:04.110Z,62.23
2023-05-08T19:49:30.966Z,62.07
2023-05-08T19:51:57.462Z,62.34
2023-05-08T19:54:23.957Z,62.15
2023-05-08T19:56:50.614Z,62.26
2023-05-08T19:59:17.110Z,62.19
2023-05-08T20:01:43.804Z,62.44
2023-05-08T20:04:10.365Z,62.16
2023-05-08T20:06:38.338Z,62.18
2023-05-08T20:09:06.134Z,62.12
2023-05-08T20:11:32.684Z,62.40
2023-05-08T20:13:59.191Z,62.44
2023-05-08T20:16:25.861Z,62.60
2023-05-08T20:18:55.531Z,62.40
2023-05-08T20:21:22.051Z,62.24
2023-05-08T20:23:48.565Z,62.48
2023-05-08T20:26:15.071Z,62.21
2023-05-08T20:28:41.557Z,62.06
2023-05-08T20:31:08.314Z,62.06
2023-05-08T20:33:34.947Z,61.96
2023-05-08T20:36:01.484Z,62.18
2023-05-08T20:38:27.994Z,62.03
2023-05-08T20:40:56.919Z,61.93
2023-05-08T20:43:25.953Z,62.00
2023-05-08T20:45:52.462Z,61.98
2023-05-08T20:48:19.019Z,62.02
2023-05-08T20:50:48.456Z,62.05
2023-05-08T20:53:15.015Z,62.11
2023-05-08T20:55:41.665Z,62.27
2023-05-08T20:58:09.161Z,62.17
2023-05-08T21:00:36.141Z,62.13
2023-05-08T21:03:03.349Z,61.95
2023-05-08T21:05:29.900Z,62.17
2023-05-08T21:07:59.987Z,62.22
2023-05-08T21:10:28.678Z,62.38
2023-05-08T21:12:55.290Z,62.31
2023-05-08T21:15:21.926Z,62.11
2023-05-08T21:17:48.480Z,62.33
2023-05-08T21:20:15.375Z,62.56
2023-05-08T21:22:42.223Z,62.70
2023-05-08T21:25:12.654Z,62.74
2023-05-08T21:27:42.415Z,62.75
2023-05-08T21:30:14.876Z,62.49
2023-05-08T21:32:42.761Z,62.63
2023-05-08T21:35:10.104Z,62.15
2023-05-08T21:37:36.578Z,61.80
2023-05-08T21:40:04.583Z,62.02
2023-05-08T21:42:32.307Z,62.03
2023-05-08T21:44:59.263Z,61.62
2023-05-08T21:47:28.026Z,61.48
2023-05-08T21:49:54.883Z,61.47
2023-05-08T21:52:22.478Z,61.37
2023-05-08T21:54:49.414Z,61.68
2023-05-08T21:57:15.909Z,61.31
2023-05-08T21:59:42.410Z,61.25
2023-05-08T22:02:08.962Z,61.24
2023-05-08T22:04:35.655Z,61.18
2023-05-08T22:07:02.142Z,61.11
2023-05-08T22:09:28.617Z,61.15
2023-05-08T22:11:55.122Z,61.02
2023-05-08T22:14:21.605Z,61.05
2023-05-08T22:16:48.113Z,61.15
2023-05-08T22:19:15.160Z,61.10
2023-05-08T22:21:42.530Z,61.21
2023-05-08T22:24:09.030Z,61.23
2023-05-08T22:26:35.497Z,61.32
2023-05-08T22:29:02.060Z,61.09
2023-05-08T22:31:28.596Z,61.07
2023-05-08T22:33:55.143Z,60.88
2023-05-08T22:36:23.871Z,60.92
2023-05-08T22:38:50.557Z,60.90
2023-05-08T22:41:17.110Z,61.10
2023-05-08T22:43:43.678Z,61.19
2023-05-08T22:46:10.578Z,61.22
2023-05-08T22:48:37.577Z,61.45
2023-05-08T22:51:04.505Z,61.54
2023-05-08T22:53:31.027Z,61.84
2023-05-08T22:55:57.584Z,61.77
2023-05-08T22:58:25.336Z,61.68
2023-05-08T23:00:52.018Z,61.70
2023-05-08T23:03:18.726Z,61.81
2023-05-08T23:05:45.265Z,61.78
2023-05-08T23:08:11.783Z,61.87
2023-05-08T23:10:38.254Z,61.82
2023-05-08T23:13:04.806Z,61.76
2023-05-08T23:15:31.369Z,61.88
2023-05-08T23:17:57.891Z,61.97
2023-05-08T23:20:24.408Z,61.69
2023-05-08T23:22:50.958Z,61.72
2023-05-08T23:25:17.471Z,61.89
2023-05-08T23:27:44.050Z,61.84
2023-05-08T23:30:13.600Z,61.78
2023-05-08T23:32:40.301Z,61.81
2023-05-08T23:35:07.347Z,61.84
2023-05-08T23:37:33.858Z,62.02
2023-05-08T23:40:00.356Z,62.10
2023-05-08T23:42:27.539Z,61.88
2023-05-08T23:44:54.135Z,62.08
2023-05-08T23:47:22.424Z,62.11
2023-05-08T23:49:49.039Z,62.08
2023-05-08T23:52:15.816Z,62.23
2023-05-08T23:54:42.337Z,62.16
2023-05-08T23:57:08.881Z,62.23
2023-05-08T23:59:35.403Z,62.16
